Time;durP1;ratioP1;P1;durP2;ratioP2;P2;SDS_P1;SDS_P2;PMS_P1;PMS_P2;Temp;Humidity;BMP_temperature;BMP_pressure;BME280_temperature;BME280_humidity;BME280_pressure;Samples;Min_cycle;Max_cycle;Signal;HPM_P1;HPM_P2
2022/02/19 00:01:48;;;;;;;31.20;10.80;;;;;;;;;;4968321;28;20044;-54
2022/02/19 00:04:14;;;;;;;29.98;11.77;;;;;;;;;;4968468;28;20065;-54
2022/02/19 00:06:41;;;;;;;33.05;15.45;;;;;;;;;;4968590;28;20058;-54
2022/02/19 00:09:07;;;;;;;23.98;10.43;;;;;;;;;;4968242;28;20039;-54
2022/02/19 00:11:33;;;;;;;28.90;11.30;;;;;;;;;;4968370;28;20119;-54
2022/02/19 00:13:59;;;;;;;28.40;12.30;;;;;;;;;;4968705;28;20510;-54
2022/02/19 00:16:25;;;;;;;29.75;11.43;;;;;;;;;;4968785;28;20030;-54
2022/02/19 00:18:51;;;;;;;25.83;11.25;;;;;;;;;;4968352;28;20089;-54
2022/02/19 00:21:18;;;;;;;41.25;17.73;;;;;;;;;;4968202;28;20399;-54
2022/02/19 00:23:44;;;;;;;36.08;14.40;;;;;;;;;;4968179;28;20105;-54
2022/02/19 00:26:10;;;;;;;33.85;14.30;;;;;;;;;;4968022;28;20702;-54
2022/02/19 00:28:36;;;;;;;24.52;10.40;;;;;;;;;;4967975;28;20027;-54
2022/02/19 00:31:02;;;;;;;24.55;11.55;;;;;;;;;;4968105;28;20060;-54
2022/02/19 00:33:29;;;;;;;51.20;21.73;;;;;;;;;;4967888;28;20041;-55
2022/02/19 00:35:55;;;;;;;27.08;12.63;;;;;;;;;;4967905;28;20065;-54
2022/02/19 00:38:21;;;;;;;27.60;13.68;;;;;;;;;;4967933;28;20042;-54
2022/02/19 00:40:48;;;;;;;32.78;16.05;;;;;;;;;;4967995;28;20018;-54
2022/02/19 00:43:15;;;;;;;45.28;21.92;;;;;;;;;;4967557;28;20101;-54
2022/02/19 00:45:44;;;;;;;39.42;18.38;;;;;;;;;;4967627;28;20097;-54
2022/02/19 00:48:10;;;;;;;33.85;15.48;;;;;;;;;;4967772;28;20040;-54
2022/02/19 00:50:36;;;;;;;32.80;14.43;;;;;;;;;;4967740;28;20030;-55
2022/02/19 00:53:02;;;;;;;30.23;13.50;;;;;;;;;;4967755;28;20019;-54
2022/02/19 00:55:29;;;;;;;39.28;16.60;;;;;;;;;;4967923;28;20026;-54
2022/02/19 00:57:56;;;;;;;30.40;14.32;;;;;;;;;;4967204;28;20058;-55
2022/02/19 01:00:22;;;;;;;35.53;15.07;;;;;;;;;;4967701;28;20133;-55
2022/02/19 01:02:48;;;;;;;29.83;14.05;;;;;;;;;;4967178;28;20042;-54
2022/02/19 01:05:14;;;;;;;29.85;14.70;;;;;;;;;;4967376;28;20027;-55
2022/02/19 01:07:40;;;;;;;36.35;14.70;;;;;;;;;;4967402;28;20148;-54
2022/02/19 01:10:09;;;;;;;33.97;15.98;;;;;;;;;;4967035;28;20023;-54
2022/02/19 01:12:37;;;;;;;30.60;13.43;;;;;;;;;;4965057;28;20046;-54
2022/02/19 01:15:06;;;;;;;27.98;11.68;;;;;;;;;;4967463;28;20026;-55
2022/02/19 01:17:32;;;;;;;25.35;10.35;;;;;;;;;;4967473;28;20034;-55
2022/02/19 01:20:00;;;;;;;25.45;9.50;;;;;;;;;;4967462;28;20041;-54
2022/02/19 01:22:29;;;;;;;29.27;11.77;;;;;;;;;;4967046;28;20206;-55
2022/02/19 01:24:58;;;;;;;28.50;10.25;;;;;;;;;;4967290;28;20533;-55
2022/02/19 01:27:24;;;;;;;33.28;14.52;;;;;;;;;;4966875;28;20472;-55
2022/02/19 01:29:50;;;;;;;28.67;12.68;;;;;;;;;;4984156;28;20022;-54
2022/02/19 01:32:16;;;;;;;23.92;9.48;;;;;;;;;;4995566;28;20035;-54
2022/02/19 01:34:42;;;;;;;25.02;9.50;;;;;;;;;;4993875;28;20026;-54
2022/02/19 01:37:10;;;;;;;33.83;12.27;;;;;;;;;;4995208;28;20391;-54
2022/02/19 01:39:37;;;;;;;27.15;11.90;;;;;;;;;;4994722;28;20022;-55
2022/02/19 01:42:03;;;;;;;28.65;11.77;;;;;;;;;;4995117;28;20045;-54
2022/02/19 01:44:37;;;;;;;29.08;11.40;;;;;;;;;;4995060;28;20022;-54
2022/02/19 01:47:04;;;;;;;29.23;12.07;;;;;;;;;;4995263;28;20051;-54
2022/02/19 01:49:30;;;;;;;35.17;15.13;;;;;;;;;;4994945;28;20019;-54
2022/02/19 01:52:01;;;;;;;34.88;14.48;;;;;;;;;;4995233;28;20054;-54
2022/02/19 01:54:27;;;;;;;28.20;11.25;;;;;;;;;;4995214;28;20022;-53
2022/02/19 01:56:53;;;;;;;34.33;13.70;;;;;;;;;;4995097;28;20109;-55
2022/02/19 01:59:20;;;;;;;27.08;10.70;;;;;;;;;;4994724;28;20053;-54
2022/02/19 02:01:47;;;;;;;23.83;10.35;;;;;;;;;;4994936;28;20061;-54
2022/02/19 02:04:13;;;;;;;23.25;9.27;;;;;;;;;;4994764;28;20034;-54
2022/02/19 02:06:42;;;;;;;24.70;9.80;;;;;;;;;;4994685;28;20026;-54
2022/02/19 02:09:08;;;;;;;22.58;9.60;;;;;;;;;;4994605;28;20534;-54
2022/02/19 02:11:34;;;;;;;24.27;11.77;;;;;;;;;;4994759;28;20030;-54
2022/02/19 02:14:00;;;;;;;27.58;12.23;;;;;;;;;;4994461;28;20026;-55
2022/02/19 02:16:33;;;;;;;24.35;10.82;;;;;;;;;;4994949;28;20435;-55
2022/02/19 02:19:02;;;;;;;18.05;6.75;;;;;;;;;;4994750;28;20029;-56
2022/02/19 02:21:28;;;;;;;22.60;9.23;;;;;;;;;;4994541;28;20050;-55
2022/02/19 02:23:54;;;;;;;16.90;8.07;;;;;;;;;;4994539;28;20048;-54
2022/02/19 02:26:21;;;;;;;16.63;6.65;;;;;;;;;;4994339;28;20023;-55
2022/02/19 02:28:49;;;;;;;19.70;8.02;;;;;;;;;;4994565;28;20060;-56
2022/02/19 02:31:15;;;;;;;23.15;8.75;;;;;;;;;;4994259;28;20026;-56
2022/02/19 02:33:42;;;;;;;26.77;10.07;;;;;;;;;;4994363;28;20061;-55
2022/02/19 02:36:08;;;;;;;27.50;11.15;;;;;;;;;;4994140;28;20483;-55
2022/02/19 02:38:34;;;;;;;18.45;7.07;;;;;;;;;;4994226;28;20054;-56
2022/02/19 02:41:01;;;;;;;23.60;7.78;;;;;;;;;;4994221;28;20027;-55
2022/02/19 02:43:27;;;;;;;24.95;8.82;;;;;;;;;;4993924;28;20042;-55
2022/02/19 02:45:53;;;;;;;33.67;11.20;;;;;;;;;;4993942;28;20485;-54
2022/02/19 02:48:20;;;;;;;56.63;22.77;;;;;;;;;;4994230;28;20391;-54
2022/02/19 02:50:46;;;;;;;61.33;21.95;;;;;;;;;;4993567;28;20022;-56
2022/02/19 02:53:12;;;;;;;55.15;22.55;;;;;;;;;;4993620;28;20140;-55
2022/02/19 02:55:40;;;;;;;65.15;24.17;;;;;;;;;;4994167;28;20022;-57
2022/02/19 02:58:08;;;;;;;62.58;24.52;;;;;;;;;;4993776;28;20531;-56
2022/02/19 03:00:35;;;;;;;55.67;22.90;;;;;;;;;;4994233;28;20413;-56
2022/02/19 03:03:03;;;;;;;53.75;20.08;;;;;;;;;;4994082;28;20085;-56
2022/02/19 03:05:29;;;;;;;41.05;15.13;;;;;;;;;;4994379;28;20018;-56
2022/02/19 03:07:56;;;;;;;38.35;13.95;;;;;;;;;;4993881;28;20453;-56
2022/02/19 03:10:22;;;;;;;34.22;13.15;;;;;;;;;;4994025;28;20026;-56
2022/02/19 03:12:48;;;;;;;41.85;14.35;;;;;;;;;;4992511;28;20117;-56
2022/02/19 03:15:18;;;;;;;38.45;13.15;;;;;;;;;;4994091;28;20036;-56
2022/02/19 03:17:45;;;;;;;26.70;11.30;;;;;;;;;;4993917;28;20527;-56
2022/02/19 03:20:14;;;;;;;26.33;11.93;;;;;;;;;;4993660;28;20118;-57
2022/02/19 03:22:40;;;;;;;32.42;12.50;;;;;;;;;;4993807;28;20125;-56
2022/02/19 03:25:06;;;;;;;32.13;12.48;;;;;;;;;;4993880;28;20467;-56
2022/02/19 03:27:32;;;;;;;31.40;14.35;;;;;;;;;;4993420;28;20030;-56
2022/02/19 03:29:58;;;;;;;33.75;14.30;;;;;;;;;;4994003;28;20486;-56
2022/02/19 03:32:25;;;;;;;37.47;13.52;;;;;;;;;;4994049;28;20030;-56
2022/02/19 03:34:53;;;;;;;47.75;15.73;;;;;;;;;;4993581;28;20121;-56
2022/02/19 03:37:24;;;;;;;44.35;17.35;;;;;;;;;;4993608;28;20059;-56
2022/02/19 03:39:50;;;;;;;38.75;13.27;;;;;;;;;;4993586;28;20059;-64
2022/02/19 03:42:16;;;;;;;27.65;12.48;;;;;;;;;;4993780;28;20062;-56
2022/02/19 03:44:44;;;;;;;45.33;16.58;;;;;;;;;;4993712;28;20105;-55
2022/02/19 03:47:10;;;;;;;42.47;17.27;;;;;;;;;;4993590;28;20024;-54
2022/02/19 03:49:39;;;;;;;48.50;19.13;;;;;;;;;;4993871;28;20042;-54
2022/02/19 03:52:05;;;;;;;56.95;21.20;;;;;;;;;;4993323;28;20027;-54
2022/02/19 03:54:31;;;;;;;65.82;24.35;;;;;;;;;;4993319;28;20032;-56
2022/02/19 03:56:57;;;;;;;90.60;32.25;;;;;;;;;;4993316;28;20037;-55
2022/02/19 03:59:23;;;;;;;78.45;28.27;;;;;;;;;;4993497;28;20023;-55
2022/02/19 04:01:49;;;;;;;70.85;25.77;;;;;;;;;;4993490;28;20053;-55
2022/02/19 04:04:15;;;;;;;55.58;20.35;;;;;;;;;;4996651;28;20035;-55
2022/02/19 04:06:41;;;;;;;56.42;20.92;;;;;;;;;;4997052;28;20482;-55
2022/02/19 04:09:07;;;;;;;40.10;14.27;;;;;;;;;;4996878;28;20105;-55
2022/02/19 04:11:33;;;;;;;34.35;12.35;;;;;;;;;;4996777;28;20386;-54
2022/02/19 04:13:59;;;;;;;30.55;11.10;;;;;;;;;;4995220;28;20041;-55
2022/02/19 04:16:28;;;;;;;36.28;11.45;;;;;;;;;;4996884;28;20027;-55
2022/02/19 04:18:55;;;;;;;37.42;15.18;;;;;;;;;;4996826;28;20037;-55
2022/02/19 04:21:21;;;;;;;37.33;15.50;;;;;;;;;;4996640;28;20494;-55
2022/02/19 04:23:47;;;;;;;29.40;11.85;;;;;;;;;;4996631;28;20487;-55
2022/02/19 04:26:13;;;;;;;41.25;15.02;;;;;;;;;;4996424;28;20018;-54
2022/02/19 04:28:39;;;;;;;29.38;12.88;;;;;;;;;;4996685;28;20054;-54
2022/02/19 04:31:05;;;;;;;30.65;11.90;;;;;;;;;;4996552;28;20038;-55
2022/02/19 04:33:31;;;;;;;32.15;14.10;;;;;;;;;;4996490;28;20033;-55
2022/02/19 04:35:57;;;;;;;40.63;17.15;;;;;;;;;;4996348;28;20050;-55
2022/02/19 04:38:24;;;;;;;40.55;15.75;;;;;;;;;;4996390;28;20105;-55
2022/02/19 04:40:51;;;;;;;75.88;25.85;;;;;;;;;;4996225;28;20121;-55
2022/02/19 04:43:17;;;;;;;57.70;22.27;;;;;;;;;;4996371;28;20147;-55
2022/02/19 04:45:43;;;;;;;55.08;23.17;;;;;;;;;;4996315;28;20026;-55
2022/02/19 04:48:09;;;;;;;49.33;20.88;;;;;;;;;;4996227;28;20084;-55
2022/02/19 04:50:35;;;;;;;35.00;13.60;;;;;;;;;;4996344;28;20104;-57
2022/02/19 04:53:01;;;;;;;47.72;20.10;;;;;;;;;;4994456;28;20035;-57
2022/02/19 04:55:28;;;;;;;63.40;24.88;;;;;;;;;;4996220;28;20038;-57
2022/02/19 04:57:56;;;;;;;62.30;21.80;;;;;;;;;;4995778;28;20110;-57
2022/02/19 05:00:22;;;;;;;69.38;26.85;;;;;;;;;;4996038;28;20071;-56
2022/02/19 05:02:51;;;;;;;63.28;24.35;;;;;;;;;;4996069;28;20042;-58
2022/02/19 05:05:17;;;;;;;69.25;25.92;;;;;;;;;;4996157;28;20413;-58
2022/02/19 05:07:45;;;;;;;82.82;33.80;;;;;;;;;;4995931;28;20026;-59
2022/02/19 05:10:14;;;;;;;78.72;28.60;;;;;;;;;;4995646;28;20029;-58
2022/02/19 05:12:43;;;;;;;107.40;40.58;;;;;;;;;;4997460;28;20026;-59
2022/02/19 05:15:12;;;;;;;104.18;39.63;;;;;;;;;;5000745;28;20125;-59
2022/02/19 05:17:53;;;;;;;62.50;25.10;;;;;;;;;;5002937;28;20069;-59
2022/02/19 05:20:23;;;;;;;66.85;25.40;;;;;;;;;;5004511;28;20028;-58
2022/02/19 05:22:50;;;;;;;78.13;30.60;;;;;;;;;;5001520;28;20034;-58
2022/02/19 05:25:16;;;;;;;90.28;31.20;;;;;;;;;;5004637;28;20026;-57
2022/02/19 05:27:42;;;;;;;90.47;35.00;;;;;;;;;;5006073;28;20026;-56
2022/02/19 05:30:09;;;;;;;89.03;33.42;;;;;;;;;;5001555;28;20489;-57
2022/02/19 05:32:35;;;;;;;99.75;33.92;;;;;;;;;;5004834;28;20026;-57
2022/02/19 05:35:01;;;;;;;129.70;43.50;;;;;;;;;;5009941;28;20368;-56
2022/02/19 05:37:30;;;;;;;104.50;36.30;;;;;;;;;;5023237;28;20033;-57
2022/02/19 05:39:57;;;;;;;94.63;35.22;;;;;;;;;;5023961;28;20049;-56
2022/02/19 05:42:23;;;;;;;91.50;33.83;;;;;;;;;;5025244;28;20025;-57
2022/02/19 05:44:49;;;;;;;91.95;33.63;;;;;;;;;;5034339;28;20025;-56
2022/02/19 05:47:18;;;;;;;97.45;39.20;;;;;;;;;;5028645;28;20029;-56
2022/02/19 05:49:45;;;;;;;95.90;38.30;;;;;;;;;;5029811;28;20033;-57
2022/02/19 05:52:11;;;;;;;72.47;27.52;;;;;;;;;;5034306;28;20030;-57
2022/02/19 05:54:37;;;;;;;63.65;23.33;;;;;;;;;;5034071;28;20484;-57
2022/02/19 05:57:04;;;;;;;52.45;22.63;;;;;;;;;;5034106;28;20018;-57
2022/02/19 05:59:30;;;;;;;45.50;17.58;;;;;;;;;;5034339;28;20374;-56
2022/02/19 06:01:56;;;;;;;34.13;14.93;;;;;;;;;;5034360;28;20021;-56
2022/02/19 06:04:22;;;;;;;39.03;15.38;;;;;;;;;;5034500;28;20049;-56
2022/02/19 06:06:48;;;;;;;28.38;14.45;;;;;;;;;;5033971;28;20025;-57
2022/02/19 06:09:14;;;;;;;27.88;13.57;;;;;;;;;;5033912;28;20397;-56
2022/02/19 06:11:42;;;;;;;25.55;10.50;;;;;;;;;;5034362;28;20029;-56
2022/02/19 06:14:08;;;;;;;30.23;12.07;;;;;;;;;;5034292;28;20095;-54
2022/02/19 06:16:34;;;;;;;30.92;14.77;;;;;;;;;;5034680;28;20060;-55
2022/02/19 06:19:00;;;;;;;48.45;21.67;;;;;;;;;;5016116;28;20056;-55
2022/02/19 06:21:27;;;;;;;43.35;20.77;;;;;;;;;;5033945;28;20029;-53
2022/02/19 06:23:53;;;;;;;50.47;22.60;;;;;;;;;;5033755;28;20046;-53
2022/02/19 06:26:19;;;;;;;39.67;18.67;;;;;;;;;;5033829;28;20025;-52
2022/02/19 06:28:45;;;;;;;43.80;17.08;;;;;;;;;;5033901;28;20118;-52
2022/02/19 06:31:11;;;;;;;68.70;25.33;;;;;;;;;;5033733;28;20428;-52
2022/02/19 06:33:37;;;;;;;80.10;33.58;;;;;;;;;;5033566;28;20048;-53
2022/02/19 06:36:05;;;;;;;50.80;23.00;;;;;;;;;;5020504;28;20049;-54
2022/02/19 06:38:39;;;;;;;58.63;22.70;;;;;;;;;;5013711;28;20471;-53
2022/02/19 06:41:06;;;;;;;55.65;24.83;;;;;;;;;;5009309;28;20014;-54
2022/02/19 06:43:32;;;;;;;74.93;32.17;;;;;;;;;;5003282;28;20085;-54
2022/02/19 06:45:58;;;;;;;71.07;31.23;;;;;;;;;;5002580;28;20104;-52
2022/02/19 06:48:24;;;;;;;66.55;30.58;;;;;;;;;;5004389;28;20363;-54
2022/02/19 06:50:56;;;;;;;67.13;30.08;;;;;;;;;;5003134;28;20010;-53
2022/02/19 06:53:22;;;;;;;48.83;22.70;;;;;;;;;;5002032;28;20545;-53
2022/02/19 06:55:49;;;;;;;61.20;27.63;;;;;;;;;;5004139;28;20355;-53
2022/02/19 06:58:15;;;;;;;56.22;26.20;;;;;;;;;;5003556;28;20085;-53
2022/02/19 07:00:41;;;;;;;58.65;29.80;;;;;;;;;;5002288;28;20019;-53
2022/02/19 07:03:07;;;;;;;68.00;35.63;;;;;;;;;;5004113;28;20040;-52
2022/02/19 07:05:33;;;;;;;66.38;32.60;;;;;;;;;;5002248;28;20038;-54
2022/02/19 07:07:59;;;;;;;49.10;23.45;;;;;;;;;;5003841;28;20026;-53
2022/02/19 07:10:27;;;;;;;52.70;27.27;;;;;;;;;;5003537;28;20375;-53
2022/02/19 07:12:54;;;;;;;60.45;31.95;;;;;;;;;;5002047;28;20565;-54
2022/02/19 07:15:20;;;;;;;57.97;26.05;;;;;;;;;;5003795;28;20022;-52
2022/02/19 07:17:53;;;;;;;75.85;35.15;;;;;;;;;;5003298;28;20151;-51
2022/02/19 07:20:21;;;;;;;87.97;39.13;;;;;;;;;;5000003;28;20034;-55
2022/02/19 07:22:50;;;;;;;60.90;27.60;;;;;;;;;;5001369;28;20071;-52
2022/02/19 07:25:16;;;;;;;42.42;21.48;;;;;;;;;;5004216;28;20029;-54
2022/02/19 07:27:43;;;;;;;39.25;18.13;;;;;;;;;;5002826;28;20025;-54
2022/02/19 07:30:12;;;;;;;27.15;14.95;;;;;;;;;;5002438;28;20470;-54
2022/02/19 07:32:38;;;;;;;32.22;15.32;;;;;;;;;;4999926;28;20030;-52
2022/02/19 07:35:08;;;;;;;37.78;17.77;;;;;;;;;;5013533;28;20064;-53
2022/02/19 07:37:39;;;;;;;44.72;19.58;;;;;;;;;;5013666;28;20033;-54
2022/02/19 07:40:06;;;;;;;43.92;21.60;;;;;;;;;;5017403;28;20455;-54
2022/02/19 07:42:32;;;;;;;40.30;20.30;;;;;;;;;;5015201;28;20112;-53
2022/02/19 07:44:59;;;;;;;50.10;21.85;;;;;;;;;;5017454;28;20030;-54
2022/02/19 07:47:26;;;;;;;53.95;25.58;;;;;;;;;;5016913;28;20033;-53
2022/02/19 07:58:18;;;;;;;65.15;32.33;;;;;;;;;;5017321;28;20036;-48
2022/02/19 08:01:12;;;;;;;66.15;31.83;;;;;;;;;;5016599;28;20026;-51
2022/02/19 08:03:38;;;;;;;72.60;35.03;;;;;;;;;;5015168;28;20465;-53
2022/02/19 08:06:04;;;;;;;56.15;29.60;;;;;;;;;;5016582;28;20026;-53
2022/02/19 08:08:31;;;;;;;65.78;33.03;;;;;;;;;;5016616;28;20072;-53
2022/02/19 08:10:57;;;;;;;68.60;35.83;;;;;;;;;;5016305;28;20026;-55
2022/02/19 08:13:23;;;;;;;84.00;40.05;;;;;;;;;;5016386;28;20109;-52
2022/02/19 08:15:50;;;;;;;75.15;37.92;;;;;;;;;;5016621;28;20121;-52
2022/02/19 08:18:16;;;;;;;84.53;42.30;;;;;;;;;;5016524;28;20018;-52
2022/02/19 08:20:44;;;;;;;88.82;41.45;;;;;;;;;;5016438;28;20025;-52
2022/02/19 08:23:10;;;;;;;92.88;44.83;;;;;;;;;;5016277;28;20033;-52
2022/02/19 08:25:38;;;;;;;88.07;41.70;;;;;;;;;;5016458;28;20101;-52
2022/02/19 08:28:07;;;;;;;191.57;39.45;;;;;;;;;;5016004;28;20048;-51
2022/02/19 08:30:39;;;;;;;67.93;33.03;;;;;;;;;;5016141;28;20045;-53
2022/02/19 08:33:08;;;;;;;65.20;30.25;;;;;;;;;;5015789;28;20030;-51
2022/02/19 08:35:35;;;;;;;63.88;31.70;;;;;;;;;;5015955;28;20073;-53
2022/02/19 08:38:01;;;;;;;85.63;38.83;;;;;;;;;;5014559;28;20121;-53
2022/02/19 08:40:28;;;;;;;101.75;47.92;;;;;;;;;;5015752;28;20042;-55
2022/02/19 08:42:54;;;;;;;89.07;40.83;;;;;;;;;;5015733;28;20053;-52
2022/02/19 08:45:21;;;;;;;89.43;43.65;;;;;;;;;;5015995;28;20026;-52
2022/02/19 08:47:48;;;;;;;91.50;41.25;;;;;;;;;;5015962;28;20053;-54
2022/02/19 08:50:15;;;;;;;70.07;33.25;;;;;;;;;;5015804;28;20466;-53
2022/02/19 08:52:42;;;;;;;73.57;32.95;;;;;;;;;;5015845;28;20105;-52
2022/02/19 08:55:09;;;;;;;73.57;33.97;;;;;;;;;;5015602;28;20029;-52
2022/02/19 08:57:35;;;;;;;71.50;34.00;;;;;;;;;;5015632;28;20025;-53
2022/02/19 09:00:04;;;;;;;67.03;29.90;;;;;;;;;;5015655;28;20061;-52
2022/02/19 09:02:30;;;;;;;55.15;23.38;;;;;;;;;;5015477;28;20022;-53
2022/02/19 09:04:56;;;;;;;41.05;20.35;;;;;;;;;;5016070;28;20034;-52
2022/02/19 09:07:22;;;;;;;53.92;20.10;;;;;;;;;;5015506;28;20052;-53
2022/02/19 09:09:48;;;;;;;43.65;22.10;;;;;;;;;;5015784;28;20034;-51
2022/02/19 09:12:15;;;;;;;114.97;42.33;;;;;;;;;;5015634;28;20121;-51
2022/02/19 09:14:41;;;;;;;262.13;85.55;;;;;;;;;;5015294;28;20426;-51
2022/02/19 09:17:07;;;;;;;197.20;70.93;;;;;;;;;;5013600;28;20040;-51
2022/02/19 09:19:33;;;;;;;103.00;41.47;;;;;;;;;;5015172;28;20091;-51
2022/02/19 09:22:01;;;;;;;75.00;34.38;;;;;;;;;;5015153;28;20100;-51
2022/02/19 09:24:28;;;;;;;56.33;25.23;;;;;;;;;;5015383;28;20124;-52
2022/02/19 09:26:54;;;;;;;54.42;22.98;;;;;;;;;;5015397;28;20034;-51
2022/02/19 09:29:20;;;;;;;34.80;17.13;;;;;;;;;;5014964;28;20030;-50
2022/02/19 09:31:46;;;;;;;42.33;17.25;;;;;;;;;;5015231;28;20026;-53
2022/02/19 09:34:12;;;;;;;29.95;12.90;;;;;;;;;;5015046;28;20187;-52
2022/02/19 09:36:38;;;;;;;29.38;12.95;;;;;;;;;;5014586;28;20058;-51
2022/02/19 09:39:06;;;;;;;29.35;11.05;;;;;;;;;;5014891;28;20030;-52
2022/02/19 09:41:32;;;;;;;57.15;26.40;;;;;;;;;;5014785;28;20101;-52
2022/02/19 09:44:01;;;;;;;44.00;16.58;;;;;;;;;;5014781;28;20042;-52
2022/02/19 09:46:28;;;;;;;66.93;30.58;;;;;;;;;;5014662;28;20026;-48
2022/02/19 09:48:55;;;;;;;39.97;17.38;;;;;;;;;;5014768;28;20029;-48
2022/02/19 09:51:21;;;;;;;15.48;7.68;;;;;;;;;;5014673;28;20410;-49
2022/02/19 09:53:50;;;;;;;13.27;7.10;;;;;;;;;;5014399;28;20030;-47
2022/02/19 09:56:16;;;;;;;10.23;5.30;;;;;;;;;;5014779;28;20054;-47
2022/02/19 09:58:45;;;;;;;12.30;5.07;;;;;;;;;;5013173;28;20025;-49
2022/02/19 10:01:24;;;;;;;10.85;5.45;;;;;;;;;;5013859;28;20022;-47
2022/02/19 10:03:57;;;;;;;10.05;4.55;;;;;;;;;;5014282;28;20038;-47
2022/02/19 10:06:28;;;;;;;14.02;6.10;;;;;;;;;;5014290;28;20033;-47
2022/02/19 10:09:09;;;;;;;18.13;8.05;;;;;;;;;;5014202;28;20116;-48
2022/02/19 10:11:35;;;;;;;;;;;;;;;;;;5014665;28;20030;-47
2022/02/19 10:14:19;;;;;;;21.85;9.65;;;;;;;;;;5014118;28;20281;-48
2022/02/19 10:17:02;;;;;;;19.23;6.60;;;;;;;;;;5014328;28;20033;-48
2022/02/19 10:19:28;;;;;;;12.10;5.10;;;;;;;;;;5014553;28;20033;-48
2022/02/19 10:22:10;;;;;;;14.30;5.45;;;;;;;;;;5014369;28;20036;-47
2022/02/19 10:24:37;;;;;;;12.48;5.13;;;;;;;;;;5013993;28;20041;-47
2022/02/19 10:27:03;;;;;;;20.58;7.05;;;;;;;;;;5013765;28;20022;-48
2022/02/19 10:29:32;;;;;;;14.45;6.15;;;;;;;;;;5013912;28;20026;-50
2022/02/19 10:32:01;;;;;;;13.50;5.80;;;;;;;;;;5013949;28;20381;-51
2022/02/19 10:34:27;;;;;;;13.77;7.00;;;;;;;;;;5013952;28;20036;-52
2022/02/19 10:36:58;;;;;;;19.25;7.13;;;;;;;;;;5033924;28;20044;-49
2022/02/19 10:39:40;;;;;;;13.13;6.35;;;;;;;;;;5033395;28;20036;-48
2022/02/19 10:42:08;;;;;;;22.50;10.23;;;;;;;;;;5033547;28;20033;-52
2022/02/19 10:44:35;;;;;;;24.77;9.35;;;;;;;;;;5033221;28;20500;-49
2022/02/19 10:47:23;;;;;;;20.48;9.40;;;;;;;;;;5033844;28;20549;-54
2022/02/19 10:50:07;;;;;;;22.33;9.70;;;;;;;;;;5032208;28;20036;-49
2022/02/19 10:52:34;;;;;;;20.92;10.10;;;;;;;;;;5033324;28;20029;-48
2022/02/19 10:55:07;;;;;;;20.27;9.82;;;;;;;;;;5033161;28;20053;-48
2022/02/19 10:57:37;;;;;;;16.67;8.20;;;;;;;;;;5033603;28;20101;-48
2022/02/19 11:00:13;;;;;;;18.35;9.80;;;;;;;;;;5033375;28;20025;-48
2022/02/19 11:02:40;;;;;;;17.13;7.40;;;;;;;;;;5033236;28;20026;-48
2022/02/19 11:05:10;;;;;;;12.13;6.50;;;;;;;;;;5032050;28;20026;-48
2022/02/19 11:07:37;;;;;;;11.32;5.45;;;;;;;;;;5033427;28;20038;-49
2022/02/19 11:10:04;;;;;;;14.75;7.93;;;;;;;;;;5033416;28;20036;-48
2022/02/19 11:12:31;;;;;;;21.98;9.52;;;;;;;;;;5032353;28;20037;-47
2022/02/19 11:14:57;;;;;;;23.60;10.55;;;;;;;;;;5033029;28;20096;-47
2022/02/19 11:17:24;;;;;;;18.65;10.48;;;;;;;;;;5032988;28;20428;-47
2022/02/19 11:19:53;;;;;;;22.15;9.82;;;;;;;;;;5033122;28;20238;-47
2022/02/19 11:22:19;;;;;;;23.42;11.32;;;;;;;;;;5033107;28;20071;-47
2022/02/19 11:24:46;;;;;;;17.92;8.63;;;;;;;;;;5033285;28;20369;-47
2022/02/19 11:27:13;;;;;;;18.35;8.00;;;;;;;;;;5032930;28;20025;-48
2022/02/19 11:29:39;;;;;;;28.33;12.40;;;;;;;;;;5033199;28;20041;-49
2022/02/19 11:32:06;;;;;;;36.88;14.70;;;;;;;;;;5014717;28;20397;-49
2022/02/19 11:34:32;;;;;;;30.33;11.18;;;;;;;;;;5032338;28;20347;-49
2022/02/19 11:37:18;;;;;;;26.75;10.18;;;;;;;;;;5012986;28;20030;-48
2022/02/19 11:40:21;;;;;;;14.75;6.18;;;;;;;;;;5013011;28;20030;-49
2022/02/19 11:42:50;;;;;;;16.15;5.97;;;;;;;;;;4952583;29;20132;-49
2022/02/19 11:45:39;;;;;;;10.75;4.93;;;;;;;;;;4952625;29;20095;-48
2022/02/19 11:48:07;;;;;;;20.90;5.30;;;;;;;;;;4952703;29;20039;-49
2022/02/19 11:50:37;;;;;;;14.07;6.97;;;;;;;;;;4952592;29;20073;-48
2022/02/19 11:53:11;;;;;;;13.32;6.53;;;;;;;;;;4952645;29;20040;-46
2022/02/19 11:55:38;;;;;;;14.90;7.55;;;;;;;;;;4952717;29;20031;-47
2022/02/19 11:58:08;;;;;;;20.27;8.73;;;;;;;;;;4952767;29;20212;-46
2022/02/19 12:00:44;;;;;;;20.98;6.63;;;;;;;;;;4949661;29;20024;-46
2022/02/19 12:03:16;;;;;;;11.85;5.35;;;;;;;;;;4942716;29;20042;-53
2022/02/19 12:06:02;;;;;;;20.38;9.23;;;;;;;;;;4941742;29;20044;-48
2022/02/19 12:08:28;;;;;;;22.27;11.48;;;;;;;;;;4940481;29;20031;-48
2022/02/19 12:11:08;;;;;;;15.27;7.80;;;;;;;;;;4941915;29;20023;-46
2022/02/19 12:13:44;;;;;;;27.65;10.93;;;;;;;;;;4943323;29;20031;-44
2022/02/19 12:16:34;;;;;;;22.85;8.25;;;;;;;;;;4941273;29;20027;-46
2022/02/19 12:19:04;;;;;;;38.37;16.97;;;;;;;;;;4987368;28;20037;-47
2022/02/19 12:21:33;;;;;;;32.83;16.75;;;;;;;;;;5002899;28;20026;-46
2022/02/19 12:24:12;;;;;;;32.50;11.75;;;;;;;;;;5001356;28;20034;-45
2022/02/19 12:26:57;;;;;;;33.35;16.00;;;;;;;;;;5004923;28;20065;-46
2022/02/19 12:29:30;;;;;;;15.85;9.35;;;;;;;;;;5001616;28;20109;-45
2022/02/19 12:32:02;;;;;;;21.13;11.18;;;;;;;;;;4999166;28;20430;-45
2022/02/19 12:34:29;;;;;;;40.58;21.00;;;;;;;;;;4996487;28;20467;-44
2022/02/19 12:36:58;;;;;;;23.50;11.82;;;;;;;;;;5016171;28;20041;-45
2022/02/19 12:39:25;;;;;;;15.35;7.15;;;;;;;;;;5015982;28;20037;-45
2022/02/19 12:41:57;;;;;;;14.35;7.18;;;;;;;;;;5015986;28;20498;-45
2022/02/19 12:44:28;;;;;;;14.07;5.50;;;;;;;;;;5016148;28;20402;-44
2022/02/19 12:46:55;;;;;;;17.10;6.53;;;;;;;;;;5016018;28;20084;-45
2022/02/19 12:49:23;;;;;;;40.55;17.40;;;;;;;;;;5015876;28;20478;-45
2022/02/19 12:51:58;;;;;;;24.33;9.82;;;;;;;;;;4997992;28;20030;-46
2022/02/19 12:54:37;;;;;;;27.60;12.32;;;;;;;;;;5015656;28;20022;-44
2022/02/19 12:57:04;;;;;;;12.40;5.10;;;;;;;;;;5015771;28;20374;-45
2022/02/19 12:59:33;;;;;;;8.90;3.45;;;;;;;;;;5015547;28;20049;-44
2022/02/19 13:02:00;;;;;;;11.88;4.05;;;;;;;;;;5015436;28;20022;-45
2022/02/19 13:04:30;;;;;;;11.93;3.58;;;;;;;;;;5015450;28;20030;-44
2022/02/19 13:06:56;;;;;;;16.23;5.05;;;;;;;;;;5015583;28;20133;-44
2022/02/19 13:09:23;;;;;;;12.73;5.00;;;;;;;;;;5015427;28;20109;-44
2022/02/19 13:11:51;;;;;;;7.57;2.58;;;;;;;;;;5015348;28;20030;-44
2022/02/19 13:14:17;;;;;;;8.18;3.22;;;;;;;;;;4997294;28;20073;-44
2022/02/19 13:16:57;;;;;;;5.43;2.63;;;;;;;;;;5015236;28;20029;-45
2022/02/19 13:19:23;;;;;;;8.48;2.70;;;;;;;;;;5015082;28;20545;-44
2022/02/19 13:21:59;;;;;;;6.82;2.65;;;;;;;;;;5015356;28;20458;-45
2022/02/19 13:24:25;;;;;;;11.55;2.35;;;;;;;;;;4997198;28;20046;-46
2022/02/19 13:26:53;;;;;;;11.95;4.55;;;;;;;;;;5015269;28;20018;-47
2022/02/19 13:29:25;;;;;;;9.55;4.40;;;;;;;;;;5015067;28;20022;-47
2022/02/19 13:31:54;;;;;;;11.45;5.82;;;;;;;;;;5017679;28;20040;-46
2022/02/19 13:34:21;;;;;;;9.20;3.08;;;;;;;;;;5003834;28;20026;-45
2022/02/19 13:36:47;;;;;;;12.07;3.17;;;;;;;;;;5002290;28;20074;-46
2022/02/19 13:39:17;;;;;;;31.10;19.15;;;;;;;;;;5006425;28;20080;-47
2022/02/19 13:41:52;;;;;;;20.88;9.90;;;;;;;;;;5010842;28;20029;-47
2022/02/19 13:44:19;;;;;;;23.52;12.80;;;;;;;;;;4993914;28;20454;-45
2022/02/19 13:46:45;;;;;;;11.95;6.22;;;;;;;;;;4994985;28;20027;-47
2022/02/19 13:49:12;;;;;;;19.63;8.30;;;;;;;;;;4995455;28;20459;-46
2022/02/19 13:51:39;;;;;;;12.75;6.65;;;;;;;;;;4994012;28;20034;-45
2022/02/19 13:54:34;;;;;;;8.60;4.72;;;;;;;;;;4995469;28;20030;-46
2022/02/19 13:57:18;;;;;;;25.95;5.15;;;;;;;;;;4954554;29;20048;-46
2022/02/19 14:00:03;;;;;;;14.98;5.45;;;;;;;;;;4954218;29;20046;-46
2022/02/19 14:02:29;;;;;;;16.58;4.32;;;;;;;;;;4954464;29;20035;-46
2022/02/19 14:05:02;;;;;;;11.68;5.38;;;;;;;;;;4954275;29;20042;-47
2022/02/19 14:07:28;;;;;;;10.35;3.30;;;;;;;;;;4954269;29;20042;-46
2022/02/19 14:10:07;;;;;;;15.23;5.82;;;;;;;;;;4954384;29;20027;-46
2022/02/19 14:12:34;;;;;;;13.18;4.03;;;;;;;;;;4953839;29;20151;-46
2022/02/19 14:15:00;;;;;;;16.70;6.28;;;;;;;;;;4954140;29;20088;-45
2022/02/19 14:17:38;;;;;;;29.20;14.40;;;;;;;;;;4954068;29;20023;-47
2022/02/19 14:20:10;;;;;;;31.50;15.65;;;;;;;;;;4953789;29;20039;-47
2022/02/19 14:22:47;;;;;;;46.40;22.52;;;;;;;;;;4954030;29;20028;-47
2022/02/19 14:25:21;;;;;;;44.22;23.52;;;;;;;;;;4953648;29;20081;-47
2022/02/19 14:27:58;;;;;;;20.23;8.38;;;;;;;;;;4953740;29;20062;-44
2022/02/19 14:30:28;;;;;;;23.35;10.88;;;;;;;;;;4953769;29;20031;-46
2022/02/19 14:32:55;;;;;;;24.55;12.20;;;;;;;;;;4965266;28;20390;-46
2022/02/19 14:35:22;;;;;;;21.00;9.55;;;;;;;;;;5001454;28;20048;-46
2022/02/19 14:37:48;;;;;;;36.92;19.98;;;;;;;;;;5013792;28;20371;-46